createdAt,value
2022-10-15T00:04:24.028Z,2.95
2022-10-15T00:09:22.994Z,2.20
2022-10-15T00:14:21.932Z,3.30
2022-10-15T00:19:22.192Z,2.88
2022-10-15T00:24:21.041Z,3.13
2022-10-15T00:29:19.904Z,3.60
2022-10-15T00:34:18.876Z,2.72
2022-10-15T00:39:20.016Z,2.58
2022-10-15T00:44:52.399Z,2.88
2022-10-15T00:49:58.444Z,3.03
2022-10-15T00:55:03.860Z,3.53
2022-10-15T01:00:09.223Z,3.97
2022-10-15T01:05:11.927Z,3.97
2022-10-15T01:10:14.320Z,3.85
2022-10-15T01:15:18.243Z,3.50
2022-10-15T01:20:45.729Z,3.20
2022-10-15T01:26:02.263Z,4.00
2022-10-15T01:31:08.323Z,3.50
2022-10-15T01:36:17.608Z,4.03
2022-10-15T01:41:23.165Z,3.83
2022-10-15T01:46:33.300Z,3.60
2022-10-15T01:51:39.325Z,4.13
2022-10-15T01:56:39.871Z,3.55
2022-10-15T02:06:45.988Z,4.45
2022-10-15T02:11:57.142Z,5.63
2022-10-15T02:17:04.216Z,5.50
2022-10-15T02:22:10.331Z,4.80
2022-10-15T02:27:12.225Z,4.00
2022-10-15T02:32:14.052Z,3.67
2022-10-15T02:37:14.240Z,3.58
2022-10-15T02:42:17.852Z,3.80
2022-10-15T02:47:18.278Z,4.43
2022-10-15T02:52:17.231Z,4.50
2022-10-15T02:57:16.481Z,4.57
2022-10-15T03:02:19.381Z,4.63
2022-10-15T03:07:19.662Z,4.30
2022-10-15T03:12:21.090Z,6.22
2022-10-15T03:17:21.728Z,4.40
2022-10-15T03:22:21.587Z,3.70
2022-10-15T03:27:26.330Z,6.68
2022-10-15T03:32:27.382Z,4.45
2022-10-15T03:37:26.497Z,4.03
2022-10-15T03:42:27.344Z,4.32
2022-10-15T03:47:27.884Z,3.20
2022-10-15T03:52:28.429Z,4.00
2022-10-15T03:57:27.728Z,3.90
2022-10-15T04:02:36.920Z,4.25
2022-10-15T04:07:35.892Z,5.65
2022-10-15T04:12:35.115Z,4.32
2022-10-15T04:17:39.279Z,5.00
2022-10-15T04:22:39.251Z,4.60
2022-10-15T04:27:40.026Z,5.57
2022-10-15T04:32:46.316Z,5.45
2022-10-15T04:37:45.973Z,5.10
2022-10-15T04:42:45.054Z,5.07
2022-10-15T04:47:46.318Z,4.78
2022-10-15T04:52:47.152Z,5.50
2022-10-15T04:57:46.324Z,6.13
2022-10-15T05:02:47.152Z,4.80
2022-10-15T05:07:53.740Z,5.22
2022-10-15T05:12:56.618Z,4.90
2022-10-15T05:18:04.065Z,5.88
2022-10-15T05:23:12.232Z,7.07
2022-10-15T05:28:13.800Z,6.38
2022-10-15T05:33:14.246Z,7.18
2022-10-15T05:38:13.728Z,5.35
2022-10-15T05:43:13.156Z,6.68
2022-10-15T05:48:13.927Z,6.10
2022-10-15T05:53:13.350Z,5.60
2022-10-15T05:58:16.733Z,5.30
2022-10-15T06:03:17.075Z,6.03
2022-10-15T06:08:16.072Z,8.25
2022-10-15T06:13:16.186Z,8.63
2022-10-15T06:18:17.031Z,8.43
2022-10-15T06:23:15.791Z,9.00
2022-10-15T06:28:14.799Z,9.15
2022-10-15T06:33:16.359Z,9.50
2022-10-15T06:38:16.704Z,9.15
2022-10-15T06:43:46.029Z,10.85
2022-10-15T06:48:47.255Z,11.57
2022-10-15T06:53:48.674Z,12.95
2022-10-15T06:58:47.810Z,11.98
2022-10-15T07:03:52.135Z,11.20
2022-10-15T07:08:52.824Z,9.15
2022-10-15T07:13:52.816Z,10.80
2022-10-15T07:18:52.924Z,8.90
2022-10-15T07:23:53.584Z,9.45
2022-10-15T07:28:53.546Z,9.30
2022-10-15T07:34:04.608Z,9.38
2022-10-15T07:39:05.845Z,8.43
2022-10-15T07:44:07.371Z,7.13
2022-10-15T07:49:06.528Z,8.38
2022-10-15T07:54:07.332Z,6.43
2022-10-15T07:59:06.355Z,6.40
2022-10-15T08:04:06.605Z,6.38
2022-10-15T08:09:08.783Z,6.73
2022-10-15T08:14:07.663Z,5.35
2022-10-15T08:19:06.455Z,6.07
2022-10-15T08:24:05.783Z,5.82
2022-10-15T08:29:08.996Z,6.78
2022-10-15T08:34:08.280Z,5.95
2022-10-15T08:39:09.340Z,7.03
2022-10-15T08:44:17.283Z,7.03
2022-10-15T08:49:28.092Z,7.38
2022-10-15T08:54:36.640Z,7.93
2022-10-15T08:59:42.072Z,9.32
2022-10-15T09:04:49.804Z,7.07
2022-10-15T09:09:52.644Z,6.35
2022-10-15T09:15:01.105Z,5.68
2022-10-15T09:20:07.959Z,5.68
2022-10-15T09:25:17.463Z,5.28
2022-10-15T09:30:34.073Z,6.70
2022-10-15T09:41:16.703Z,4.80
2022-10-15T09:46:17.313Z,4.65
2022-10-15T09:51:27.141Z,5.05
2022-10-15T09:56:33.441Z,3.92
2022-10-15T10:01:34.725Z,3.30
2022-10-15T10:06:33.936Z,3.88
2022-10-15T10:11:49.634Z,3.97
2022-10-15T10:17:18.888Z,5.30
2022-10-15T10:22:20.287Z,4.40
2022-10-15T10:27:45.051Z,4.57
2022-10-15T10:33:02.212Z,3.35
2022-10-15T10:38:03.204Z,4.22
2022-10-15T10:43:13.581Z,4.55
2022-10-15T10:48:23.441Z,3.57
2022-10-15T10:53:24.937Z,4.57
2022-10-15T10:58:27.125Z,5.45
2022-10-15T11:03:37.084Z,2.13
2022-10-15T11:08:42.928Z,2.75
2022-10-15T11:13:58.846Z,2.80
2022-10-15T11:19:19.101Z,2.72
2022-10-15T11:24:48.392Z,2.78
2022-10-15T11:29:56.391Z,1.90
2022-10-15T11:35:24.058Z,5.40
2022-10-15T11:40:41.079Z,2.38
2022-10-15T11:46:00.720Z,2.20
2022-10-15T11:51:08.191Z,2.27
2022-10-15T11:56:14.897Z,2.67
2022-10-15T12:01:20.597Z,2.47
2022-10-15T12:06:31.441Z,2.95
2022-10-15T12:11:41.870Z,2.22
2022-10-15T12:16:55.669Z,2.38
2022-10-15T12:22:11.578Z,2.75
2022-10-15T12:27:22.484Z,4.13
2022-10-15T12:32:26.949Z,3.25
2022-10-15T12:37:29.497Z,2.55
2022-10-15T12:42:31.221Z,2.47
2022-10-15T12:47:49.184Z,2.85
2022-10-15T12:52:59.720Z,2.38
2022-10-15T12:58:06.960Z,3.05
2022-10-15T13:03:39.096Z,6.47
2022-10-15T13:08:45.716Z,3.78
2022-10-15T13:13:46.089Z,4.00
2022-10-15T13:18:51.238Z,4.88
2022-10-15T13:23:52.781Z,5.50
2022-10-15T13:28:52.977Z,3.45
2022-10-15T13:33:55.427Z,3.67
2022-10-15T13:39:00.389Z,2.85
2022-10-15T13:44:01.230Z,4.10
2022-10-15T13:49:02.881Z,3.45
2022-10-15T13:54:08.546Z,3.67
2022-10-15T13:59:07.610Z,2.58
2022-10-15T14:04:17.372Z,3.67
2022-10-15T14:09:23.078Z,3.97
2022-10-15T14:14:34.217Z,2.47
2022-10-15T14:19:35.324Z,3.40
2022-10-15T14:24:39.150Z,2.93
2022-10-15T14:29:41.569Z,2.47
2022-10-15T14:34:42.119Z,3.10
2022-10-15T14:39:42.449Z,2.95
2022-10-15T14:44:46.667Z,3.50
2022-10-15T14:49:59.984Z,3.95
2022-10-15T14:55:11.744Z,4.25
2022-10-15T15:00:17.059Z,4.80
2022-10-15T15:05:23.956Z,4.07
2022-10-15T15:10:39.601Z,6.15
2022-10-15T15:15:42.473Z,5.47
2022-10-15T15:20:43.882Z,5.20
2022-10-15T15:25:44.163Z,5.17
2022-10-15T15:30:45.196Z,6.72
2022-10-15T15:35:51.118Z,5.70
2022-10-15T15:40:52.186Z,5.95
2022-10-15T15:45:51.010Z,6.30
2022-10-15T15:50:50.009Z,6.07
2022-10-15T15:55:51.425Z,6.78
2022-10-15T16:00:51.934Z,14.25
2022-10-15T16:10:50.162Z,10.05
2022-10-15T16:15:49.004Z,9.63
2022-10-15T16:20:49.990Z,9.15
2022-10-15T16:25:48.908Z,11.88
2022-10-15T16:30:47.766Z,11.73
2022-10-15T16:35:54.637Z,11.77
2022-10-15T16:40:53.418Z,13.88
2022-10-15T16:45:59.048Z,15.57
2022-10-15T16:51:03.667Z,14.93
2022-10-15T16:56:06.876Z,14.55
2022-10-15T17:01:07.573Z,13.93
2022-10-15T17:06:12.491Z,13.38
2022-10-15T17:11:17.083Z,13.18
2022-10-15T17:16:17.821Z,11.52
2022-10-15T17:21:22.714Z,12.10
2022-10-15T17:26:25.828Z,12.23
2022-10-15T17:31:26.579Z,12.80
2022-10-15T17:36:29.135Z,10.82
2022-10-15T17:41:33.560Z,12.50
2022-10-15T17:46:37.327Z,9.65
2022-10-15T17:51:38.285Z,10.48
2022-10-15T17:56:40.549Z,9.50
2022-10-15T18:01:59.216Z,9.15
2022-10-15T18:07:00.374Z,9.10
2022-10-15T18:12:01.305Z,9.23
2022-10-15T18:17:02.447Z,8.10
2022-10-15T18:22:02.751Z,7.30
2022-10-15T18:27:01.588Z,8.27
2022-10-15T18:32:00.776Z,8.35
2022-10-15T18:37:02.713Z,7.30
2022-10-15T18:42:01.676Z,6.88
2022-10-15T18:47:01.317Z,8.00
2022-10-15T18:52:15.779Z,7.90
2022-10-15T18:57:25.554Z,8.30
2022-10-15T19:02:28.044Z,7.95
2022-10-15T19:07:31.671Z,9.00
2022-10-15T19:12:31.496Z,7.78
2022-10-15T19:17:32.957Z,7.38
2022-10-15T19:22:33.760Z,6.70
2022-10-15T19:27:33.443Z,6.65
2022-10-15T19:32:32.418Z,7.10
2022-10-15T19:37:42.830Z,5.93
2022-10-15T19:42:42.068Z,6.35
2022-10-15T19:47:40.883Z,6.53
2022-10-15T19:52:42.228Z,6.63
2022-10-15T19:57:41.168Z,5.78
2022-10-15T20:02:39.968Z,6.63
2022-10-15T20:07:38.894Z,6.22
2022-10-15T20:12:39.361Z,7.13
2022-10-15T20:17:38.477Z,7.45
2022-10-15T20:22:37.325Z,6.20
2022-10-15T20:27:36.119Z,5.93
2022-10-15T20:32:37.180Z,6.32
2022-10-15T20:37:36.529Z,6.30
2022-10-15T20:42:37.697Z,7.40
2022-10-15T20:47:41.755Z,6.60
2022-10-15T20:52:43.157Z,6.15
2022-10-15T20:57:42.608Z,5.70
2022-10-15T21:02:43.194Z,4.65
2022-10-15T21:07:42.109Z,5.57
2022-10-15T21:12:41.348Z,5.32
2022-10-15T21:17:41.123Z,4.25
2022-10-15T21:22:59.821Z,4.90
2022-10-15T21:28:05.547Z,4.28
2022-10-15T21:33:07.719Z,4.53
2022-10-15T21:38:08.490Z,6.43
2022-10-15T21:43:09.480Z,6.03
2022-10-15T21:48:11.176Z,6.15
2022-10-15T21:53:11.334Z,7.15
2022-10-15T21:58:10.203Z,7.03
2022-10-15T22:03:09.006Z,6.93
2022-10-15T22:08:07.926Z,7.70
2022-10-15T22:13:08.293Z,7.45
2022-10-15T22:18:07.257Z,7.18
2022-10-15T22:23:06.052Z,7.18
2022-10-15T22:28:04.911Z,8.25
2022-10-15T22:33:05.503Z,7.25
2022-10-15T22:38:04.265Z,7.78
2022-10-15T22:43:04.607Z,8.88
2022-10-15T22:48:05.011Z,7.15
2022-10-15T22:53:04.752Z,7.40
2022-10-15T22:58:06.698Z,7.05
2022-10-15T23:03:07.214Z,7.60
2022-10-15T23:08:06.786Z,6.97
2022-10-15T23:13:05.523Z,7.60
2022-10-15T23:18:04.690Z,7.28
2022-10-15T23:23:05.082Z,7.10
2022-10-15T23:28:04.186Z,7.95
2022-10-15T23:33:03.873Z,7.47
2022-10-15T23:38:04.201Z,6.90
2022-10-15T23:43:03.057Z,7.97
2022-10-15T23:48:01.810Z,7.72
2022-10-15T23:53:00.813Z,7.22
2022-10-15T23:58:01.020Z,9.05
